sensor_id;sensor_type;location;lat;lon;timestamp;temperature;humidity
22635;DHT22;11484;50.858;4.384;2022-12-07T00:03:45;7.80;99.90
22635;DHT22;11484;50.858;4.384;2022-12-07T00:06:13;7.70;99.90
22635;DHT22;11484;50.858;4.384;2022-12-07T00:08:39;7.60;99.90
22635;DHT22;11484;50.858;4.384;2022-12-07T00:11:13;7.60;99.90
22635;DHT22;11484;50.858;4.384;2022-12-07T00:13:40;7.60;99.90
22635;DHT22;11484;50.858;4.384;2022-12-07T00:16:14;7.60;99.90
22635;DHT22;11484;50.858;4.384;2022-12-07T00:18:41;7.50;99.90
22635;DHT22;11484;50.858;4.384;2022-12-07T00:21:11;7.40;99.90
22635;DHT22;11484;50.858;4.384;2022-12-07T00:23:37;7.40;99.90
22635;DHT22;11484;50.858;4.384;2022-12-07T00:26:09;7.30;99.90
22635;DHT22;11484;50.858;4.384;2022-12-07T00:28:36;7.40;99.90
22635;DHT22;11484;50.858;4.384;2022-12-07T00:31:23;7.40;99.90
22635;DHT22;11484;50.858;4.384;2022-12-07T00:33:49;7.40;99.90
22635;DHT22;11484;50.858;4.384;2022-12-07T00:36:19;7.30;99.90
22635;DHT22;11484;50.858;4.384;2022-12-07T00:38:45;7.40;99.90
22635;DHT22;11484;50.858;4.384;2022-12-07T00:41:16;7.40;99.90
22635;DHT22;11484;50.858;4.384;2022-12-07T00:43:43;7.40;99.90
22635;DHT22;11484;50.858;4.384;2022-12-07T00:46:10;7.40;99.90
22635;DHT22;11484;50.858;4.384;2022-12-07T00:48:36;7.40;99.90
22635;DHT22;11484;50.858;4.384;2022-12-07T00:51:02;7.30;99.90
22635;DHT22;11484;50.858;4.384;2022-12-07T00:53:29;7.30;99.90
22635;DHT22;11484;50.858;4.384;2022-12-07T00:55:55;7.30;99.90
22635;DHT22;11484;50.858;4.384;2022-12-07T00:58:23;7.20;99.90
22635;DHT22;11484;50.858;4.384;2022-12-07T01:00:49;7.20;99.90
22635;DHT22;11484;50.858;4.384;2022-12-07T01:03:16;7.20;99.90
22635;DHT22;11484;50.858;4.384;2022-12-07T01:05:50;7.10;99.90
22635;DHT22;11484;50.858;4.384;2022-12-07T01:08:16;7.10;99.90
22635;DHT22;11484;50.858;4.384;2022-12-07T01:10:42;7.10;99.90
22635;DHT22;11484;50.858;4.384;2022-12-07T01:13:08;7.00;99.90
22635;DHT22;11484;50.858;4.384;2022-12-07T01:15:34;7.10;99.90
22635;DHT22;11484;50.858;4.384;2022-12-07T01:17:59;7.00;99.90
22635;DHT22;11484;50.858;4.384;2022-12-07T01:20:25;7.10;99.90
22635;DHT22;11484;50.858;4.384;2022-12-07T01:22:51;7.20;99.90
22635;DHT22;11484;50.858;4.384;2022-12-07T01:25:17;7.00;99.90
22635;DHT22;11484;50.858;4.384;2022-12-07T01:27:44;6.90;99.90
22635;DHT22;11484;50.858;4.384;2022-12-07T01:30:10;6.90;99.90
22635;DHT22;11484;50.858;4.384;2022-12-07T01:32:36;6.80;99.90
22635;DHT22;11484;50.858;4.384;2022-12-07T01:35:02;6.90;99.90
22635;DHT22;11484;50.858;4.384;2022-12-07T01:37:27;6.90;99.90
22635;DHT22;11484;50.858;4.384;2022-12-07T01:39:53;7.00;99.90
22635;DHT22;11484;50.858;4.384;2022-12-07T01:42:19;7.00;99.90
22635;DHT22;11484;50.858;4.384;2022-12-07T01:47:55;7.10;99.90
22635;DHT22;11484;50.858;4.384;2022-12-07T01:50:23;7.20;99.90
22635;DHT22;11484;50.858;4.384;2022-12-07T01:52:50;7.20;99.90
22635;DHT22;11484;50.858;4.384;2022-12-07T01:55:17;7.10;99.90
22635;DHT22;11484;50.858;4.384;2022-12-07T01:57:47;7.20;99.90
22635;DHT22;11484;50.858;4.384;2022-12-07T02:00:14;7.20;99.90
22635;DHT22;11484;50.858;4.384;2022-12-07T02:03:07;7.20;99.90
22635;DHT22;11484;50.858;4.384;2022-12-07T02:05:35;7.20;99.90
22635;DHT22;11484;50.858;4.384;2022-12-07T02:08:03;7.20;99.90
22635;DHT22;11484;50.858;4.384;2022-12-07T02:10:30;7.20;99.90
22635;DHT22;11484;50.858;4.384;2022-12-07T02:13:12;7.30;99.90
22635;DHT22;11484;50.858;4.384;2022-12-07T02:18:59;7.20;99.90
22635;DHT22;11484;50.858;4.384;2022-12-07T02:30:07;7.00;99.90
22635;DHT22;11484;50.858;4.384;2022-12-07T02:32:40;7.00;99.90
22635;DHT22;11484;50.858;4.384;2022-12-07T02:35:18;7.00;99.90
22635;DHT22;11484;50.858;4.384;2022-12-07T02:37:48;7.10;99.90
22635;DHT22;11484;50.858;4.384;2022-12-07T02:40:43;7.30;99.90
22635;DHT22;11484;50.858;4.384;2022-12-07T02:43:12;7.30;99.90
22635;DHT22;11484;50.858;4.384;2022-12-07T02:45:42;7.30;99.90
22635;DHT22;11484;50.858;4.384;2022-12-07T02:48:13;7.30;99.90
22635;DHT22;11484;50.858;4.384;2022-12-07T02:50:45;7.20;99.90
22635;DHT22;11484;50.858;4.384;2022-12-07T02:53:30;7.20;99.90
22635;DHT22;11484;50.858;4.384;2022-12-07T02:55:56;7.10;99.90
22635;DHT22;11484;50.858;4.384;2022-12-07T02:58:54;7.20;99.90
22635;DHT22;11484;50.858;4.384;2022-12-07T03:06:57;7.10;99.90
22635;DHT22;11484;50.858;4.384;2022-12-07T03:12:37;7.10;99.90
22635;DHT22;11484;50.858;4.384;2022-12-07T03:15:32;7.00;99.90
22635;DHT22;11484;50.858;4.384;2022-12-07T03:18:01;7.00;99.90
22635;DHT22;11484;50.858;4.384;2022-12-07T03:20:29;6.80;99.90
22635;DHT22;11484;50.858;4.384;2022-12-07T03:22:58;6.70;99.90
22635;DHT22;11484;50.858;4.384;2022-12-07T03:25:26;6.60;99.90
22635;DHT22;11484;50.858;4.384;2022-12-07T03:27:56;6.60;99.90
22635;DHT22;11484;50.858;4.384;2022-12-07T03:30:29;6.70;99.90
22635;DHT22;11484;50.858;4.384;2022-12-07T03:33:11;6.70;99.90
22635;DHT22;11484;50.858;4.384;2022-12-07T03:35:49;6.80;99.90
22635;DHT22;11484;50.858;4.384;2022-12-07T03:43:16;6.70;99.90
22635;DHT22;11484;50.858;4.384;2022-12-07T03:45:48;6.60;99.90
22635;DHT22;11484;50.858;4.384;2022-12-07T03:51:34;6.60;99.90
22635;DHT22;11484;50.858;4.384;2022-12-07T03:54:10;6.50;99.90
22635;DHT22;11484;50.858;4.384;2022-12-07T03:56:38;6.50;99.90
22635;DHT22;11484;50.858;4.384;2022-12-07T03:59:04;6.50;99.90
22635;DHT22;11484;50.858;4.384;2022-12-07T04:01:31;6.50;99.90
22635;DHT22;11484;50.858;4.384;2022-12-07T04:03:57;6.60;99.90
22635;DHT22;11484;50.858;4.384;2022-12-07T04:06:23;6.60;99.90
22635;DHT22;11484;50.858;4.384;2022-12-07T04:08:48;6.60;99.90
22635;DHT22;11484;50.858;4.384;2022-12-07T04:11:14;6.60;99.90
22635;DHT22;11484;50.858;4.384;2022-12-07T04:13:40;6.50;99.90
22635;DHT22;11484;50.858;4.384;2022-12-07T04:16:26;6.50;99.90
22635;DHT22;11484;50.858;4.384;2022-12-07T04:18:51;6.50;99.90
22635;DHT22;11484;50.858;4.384;2022-12-07T04:21:17;6.50;99.90
22635;DHT22;11484;50.858;4.384;2022-12-07T04:23:43;6.40;99.90
22635;DHT22;11484;50.858;4.384;2022-12-07T04:26:08;6.30;99.90
22635;DHT22;11484;50.858;4.384;2022-12-07T04:28:34;6.20;99.90
22635;DHT22;11484;50.858;4.384;2022-12-07T04:31:00;6.20;99.90
22635;DHT22;11484;50.858;4.384;2022-12-07T04:33:26;6.20;99.90
22635;DHT22;11484;50.858;4.384;2022-12-07T04:35:51;6.30;99.90
22635;DHT22;11484;50.858;4.384;2022-12-07T04:38:17;6.30;99.90
22635;DHT22;11484;50.858;4.384;2022-12-07T04:40:43;6.50;99.90
22635;DHT22;11484;50.858;4.384;2022-12-07T04:43:09;6.60;99.90
22635;DHT22;11484;50.858;4.384;2022-12-07T04:45:35;6.50;99.90
22635;DHT22;11484;50.858;4.384;2022-12-07T04:48:00;6.50;99.90
22635;DHT22;11484;50.858;4.384;2022-12-07T04:50:26;6.50;99.90
22635;DHT22;11484;50.858;4.384;2022-12-07T04:52:52;6.60;99.90
22635;DHT22;11484;50.858;4.384;2022-12-07T04:55:17;6.60;99.90
22635;DHT22;11484;50.858;4.384;2022-12-07T04:57:43;6.60;99.90
22635;DHT22;11484;50.858;4.384;2022-12-07T05:00:09;6.60;99.90
22635;DHT22;11484;50.858;4.384;2022-12-07T05:02:35;6.60;99.90
22635;DHT22;11484;50.858;4.384;2022-12-07T05:05:01;6.60;99.90
22635;DHT22;11484;50.858;4.384;2022-12-07T05:07:27;6.50;99.90
22635;DHT22;11484;50.858;4.384;2022-12-07T05:09:52;6.50;99.90
22635;DHT22;11484;50.858;4.384;2022-12-07T05:12:18;6.60;99.90
22635;DHT22;11484;50.858;4.384;2022-12-07T05:14:44;6.60;99.90
22635;DHT22;11484;50.858;4.384;2022-12-07T05:17:10;6.60;99.90
22635;DHT22;11484;50.858;4.384;2022-12-07T05:19:37;6.60;99.90
22635;DHT22;11484;50.858;4.384;2022-12-07T05:22:02;6.70;99.90
22635;DHT22;11484;50.858;4.384;2022-12-07T05:24:28;6.60;99.90
22635;DHT22;11484;50.858;4.384;2022-12-07T05:26:54;6.60;99.90
22635;DHT22;11484;50.858;4.384;2022-12-07T05:29:19;6.60;99.90
22635;DHT22;11484;50.858;4.384;2022-12-07T05:31:45;6.70;99.90
22635;DHT22;11484;50.858;4.384;2022-12-07T05:34:11;6.70;99.90
22635;DHT22;11484;50.858;4.384;2022-12-07T05:36:38;6.80;99.90
22635;DHT22;11484;50.858;4.384;2022-12-07T05:39:04;6.80;99.90
22635;DHT22;11484;50.858;4.384;2022-12-07T05:41:30;6.70;99.90
22635;DHT22;11484;50.858;4.384;2022-12-07T05:44:14;6.70;99.90
22635;DHT22;11484;50.858;4.384;2022-12-07T05:46:40;6.80;99.90
22635;DHT22;11484;50.858;4.384;2022-12-07T05:49:06;6.80;99.90
22635;DHT22;11484;50.858;4.384;2022-12-07T05:51:32;6.80;99.90
22635;DHT22;11484;50.858;4.384;2022-12-07T05:53:57;6.80;99.90
22635;DHT22;11484;50.858;4.384;2022-12-07T05:56:23;6.80;99.90
22635;DHT22;11484;50.858;4.384;2022-12-07T05:58:49;6.80;99.90
22635;DHT22;11484;50.858;4.384;2022-12-07T06:01:34;6.80;99.90
22635;DHT22;11484;50.858;4.384;2022-12-07T06:04:00;6.90;99.90
22635;DHT22;11484;50.858;4.384;2022-12-07T06:06:25;6.90;99.90
22635;DHT22;11484;50.858;4.384;2022-12-07T06:08:51;6.90;99.90
22635;DHT22;11484;50.858;4.384;2022-12-07T06:11:17;6.90;99.90
22635;DHT22;11484;50.858;4.384;2022-12-07T06:14:01;6.90;99.90
22635;DHT22;11484;50.858;4.384;2022-12-07T06:16:27;6.90;99.90
22635;DHT22;11484;50.858;4.384;2022-12-07T06:18:53;6.90;99.90
22635;DHT22;11484;50.858;4.384;2022-12-07T06:21:19;7.00;99.90
22635;DHT22;11484;50.858;4.384;2022-12-07T06:23:44;7.00;99.90
22635;DHT22;11484;50.858;4.384;2022-12-07T06:26:10;6.90;99.90
22635;DHT22;11484;50.858;4.384;2022-12-07T06:28:36;6.90;99.90
22635;DHT22;11484;50.858;4.384;2022-12-07T06:31:02;7.00;99.90
22635;DHT22;11484;50.858;4.384;2022-12-07T06:33:29;6.80;99.90
22635;DHT22;11484;50.858;4.384;2022-12-07T06:35:55;6.80;99.90
22635;DHT22;11484;50.858;4.384;2022-12-07T06:38:21;6.80;99.90
22635;DHT22;11484;50.858;4.384;2022-12-07T06:40:48;6.70;99.90
22635;DHT22;11484;50.858;4.384;2022-12-07T06:43:16;6.60;99.90
22635;DHT22;11484;50.858;4.384;2022-12-07T06:45:42;6.70;99.90
22635;DHT22;11484;50.858;4.384;2022-12-07T06:48:08;6.80;99.90
22635;DHT22;11484;50.858;4.384;2022-12-07T06:50:34;6.80;99.90
22635;DHT22;11484;50.858;4.384;2022-12-07T06:53:00;6.80;99.90
22635;DHT22;11484;50.858;4.384;2022-12-07T06:55:26;6.90;99.90
22635;DHT22;11484;50.858;4.384;2022-12-07T06:57:52;7.00;99.90
22635;DHT22;11484;50.858;4.384;2022-12-07T07:00:18;7.00;99.90
22635;DHT22;11484;50.858;4.384;2022-12-07T07:02:44;7.10;99.90
22635;DHT22;11484;50.858;4.384;2022-12-07T07:05:09;6.90;99.90
22635;DHT22;11484;50.858;4.384;2022-12-07T07:07:35;6.90;99.90
22635;DHT22;11484;50.858;4.384;2022-12-07T07:10:01;7.00;99.90
22635;DHT22;11484;50.858;4.384;2022-12-07T07:12:27;7.00;99.90
22635;DHT22;11484;50.858;4.384;2022-12-07T07:14:52;7.00;99.90
22635;DHT22;11484;50.858;4.384;2022-12-07T07:17:18;7.20;99.90
22635;DHT22;11484;50.858;4.384;2022-12-07T07:19:44;7.20;99.90
22635;DHT22;11484;50.858;4.384;2022-12-07T07:22:10;7.20;99.90
22635;DHT22;11484;50.858;4.384;2022-12-07T07:24:39;7.30;99.90
22635;DHT22;11484;50.858;4.384;2022-12-07T07:27:05;7.20;99.90
22635;DHT22;11484;50.858;4.384;2022-12-07T07:29:30;7.10;99.90
22635;DHT22;11484;50.858;4.384;2022-12-07T07:31:56;7.10;99.90
22635;DHT22;11484;50.858;4.384;2022-12-07T07:34:22;7.10;99.90
22635;DHT22;11484;50.858;4.384;2022-12-07T07:36:48;7.10;99.90
22635;DHT22;11484;50.858;4.384;2022-12-07T07:39:14;7.00;99.90
22635;DHT22;11484;50.858;4.384;2022-12-07T07:41:39;7.10;99.90
22635;DHT22;11484;50.858;4.384;2022-12-07T07:44:05;7.10;99.90
22635;DHT22;11484;50.858;4.384;2022-12-07T07:46:31;7.00;99.90
22635;DHT22;11484;50.858;4.384;2022-12-07T07:48:58;6.90;99.90
22635;DHT22;11484;50.858;4.384;2022-12-07T07:51:24;6.80;99.90
22635;DHT22;11484;50.858;4.384;2022-12-07T07:53:50;6.90;99.90
22635;DHT22;11484;50.858;4.384;2022-12-07T07:56:16;6.90;99.90
22635;DHT22;11484;50.858;4.384;2022-12-07T07:58:41;6.90;99.90
22635;DHT22;11484;50.858;4.384;2022-12-07T08:01:08;6.90;99.90
22635;DHT22;11484;50.858;4.384;2022-12-07T08:03:33;6.90;99.90
22635;DHT22;11484;50.858;4.384;2022-12-07T08:05:59;6.90;99.90
22635;DHT22;11484;50.858;4.384;2022-12-07T08:08:25;6.80;99.90
22635;DHT22;11484;50.858;4.384;2022-12-07T08:10:51;6.80;99.90
22635;DHT22;11484;50.858;4.384;2022-12-07T08:13:16;6.80;99.90
22635;DHT22;11484;50.858;4.384;2022-12-07T08:15:47;6.80;99.90
22635;DHT22;11484;50.858;4.384;2022-12-07T08:18:13;6.80;99.90
22635;DHT22;11484;50.858;4.384;2022-12-07T08:20:40;6.80;99.90
22635;DHT22;11484;50.858;4.384;2022-12-07T08:23:07;6.90;99.90
22635;DHT22;11484;50.858;4.384;2022-12-07T08:25:34;6.90;99.90
22635;DHT22;11484;50.858;4.384;2022-12-07T08:28:00;7.00;99.90
22635;DHT22;11484;50.858;4.384;2022-12-07T08:30:27;7.00;99.90
22635;DHT22;11484;50.858;4.384;2022-12-07T08:32:53;7.00;99.90
22635;DHT22;11484;50.858;4.384;2022-12-07T08:35:19;7.00;99.90
22635;DHT22;11484;50.858;4.384;2022-12-07T08:37:45;6.90;99.90
22635;DHT22;11484;50.858;4.384;2022-12-07T08:40:13;6.90;99.90
22635;DHT22;11484;50.858;4.384;2022-12-07T08:42:48;7.00;99.90
22635;DHT22;11484;50.858;4.384;2022-12-07T08:45:15;7.00;99.90
22635;DHT22;11484;50.858;4.384;2022-12-07T08:47:52;7.00;99.90
22635;DHT22;11484;50.858;4.384;2022-12-07T08:50:20;7.10;99.90
22635;DHT22;11484;50.858;4.384;2022-12-07T08:52:54;7.20;99.90
22635;DHT22;11484;50.858;4.384;2022-12-07T08:55:20;7.40;99.90
22635;DHT22;11484;50.858;4.384;2022-12-07T08:57:47;7.50;99.90
22635;DHT22;11484;50.858;4.384;2022-12-07T09:00:13;7.60;99.90
22635;DHT22;11484;50.858;4.384;2022-12-07T09:02:40;7.70;99.90
22635;DHT22;11484;50.858;4.384;2022-12-07T09:05:06;7.70;99.90
22635;DHT22;11484;50.858;4.384;2022-12-07T09:07:34;7.80;99.90
22635;DHT22;11484;50.858;4.384;2022-12-07T09:10:00;7.80;99.90
22635;DHT22;11484;50.858;4.384;2022-12-07T09:12:25;7.90;99.90
22635;DHT22;11484;50.858;4.384;2022-12-07T09:14:51;7.90;99.90
22635;DHT22;11484;50.858;4.384;2022-12-07T09:17:17;8.00;99.90
22635;DHT22;11484;50.858;4.384;2022-12-07T09:19:42;8.00;99.90
22635;DHT22;11484;50.858;4.384;2022-12-07T09:22:09;8.10;99.90
22635;DHT22;11484;50.858;4.384;2022-12-07T09:24:34;8.20;99.90
22635;DHT22;11484;50.858;4.384;2022-12-07T09:27:00;8.20;99.90
22635;DHT22;11484;50.858;4.384;2022-12-07T09:29:26;8.20;99.90
22635;DHT22;11484;50.858;4.384;2022-12-07T09:31:52;8.30;99.90
22635;DHT22;11484;50.858;4.384;2022-12-07T09:34:18;8.30;99.90
22635;DHT22;11484;50.858;4.384;2022-12-07T09:36:51;8.30;99.90
22635;DHT22;11484;50.858;4.384;2022-12-07T09:39:18;8.30;99.90
22635;DHT22;11484;50.858;4.384;2022-12-07T09:41:45;8.30;99.90
22635;DHT22;11484;50.858;4.384;2022-12-07T09:44:24;8.30;99.90
22635;DHT22;11484;50.858;4.384;2022-12-07T09:46:51;8.30;99.90
22635;DHT22;11484;50.858;4.384;2022-12-07T09:49:20;8.40;99.90
22635;DHT22;11484;50.858;4.384;2022-12-07T09:51:47;8.40;99.90
22635;DHT22;11484;50.858;4.384;2022-12-07T09:54:15;8.50;99.90
22635;DHT22;11484;50.858;4.384;2022-12-07T09:56:42;8.50;99.90
22635;DHT22;11484;50.858;4.384;2022-12-07T09:59:26;8.50;99.90
22635;DHT22;11484;50.858;4.384;2022-12-07T10:01:52;8.40;99.90
22635;DHT22;11484;50.858;4.384;2022-12-07T10:04:20;8.50;99.90
22635;DHT22;11484;50.858;4.384;2022-12-07T10:06:48;8.50;99.90
22635;DHT22;11484;50.858;4.384;2022-12-07T10:09:16;8.60;99.90
22635;DHT22;11484;50.858;4.384;2022-12-07T10:12:03;8.70;99.90
22635;DHT22;11484;50.858;4.384;2022-12-07T10:14:32;8.80;99.90
22635;DHT22;11484;50.858;4.384;2022-12-07T10:16:59;8.80;99.90
22635;DHT22;11484;50.858;4.384;2022-12-07T10:19:31;8.90;99.90
22635;DHT22;11484;50.858;4.384;2022-12-07T10:22:13;8.90;99.90
22635;DHT22;11484;50.858;4.384;2022-12-07T10:24:41;8.90;99.90
22635;DHT22;11484;50.858;4.384;2022-12-07T10:27:30;8.80;99.90
22635;DHT22;11484;50.858;4.384;2022-12-07T10:29:57;8.90;99.90
22635;DHT22;11484;50.858;4.384;2022-12-07T10:32:33;8.90;99.90
22635;DHT22;11484;50.858;4.384;2022-12-07T10:37:43;9.00;99.90
22635;DHT22;11484;50.858;4.384;2022-12-07T10:40:35;9.10;99.90
22635;DHT22;11484;50.858;4.384;2022-12-07T10:51:32;9.10;99.90
22635;DHT22;11484;50.858;4.384;2022-12-07T11:08:00;9.00;99.90
22635;DHT22;11484;50.858;4.384;2022-12-07T11:10:37;9.10;99.90
22635;DHT22;11484;50.858;4.384;2022-12-07T11:13:16;9.10;99.90
22635;DHT22;11484;50.858;4.384;2022-12-07T11:18:29;9.20;99.90
22635;DHT22;11484;50.858;4.384;2022-12-07T11:24:03;9.00;99.90
22635;DHT22;11484;50.858;4.384;2022-12-07T11:27:08;8.90;99.90
22635;DHT22;11484;50.858;4.384;2022-12-07T11:37:43;8.40;99.90
22635;DHT22;11484;50.858;4.384;2022-12-07T11:40:26;8.30;99.90
22635;DHT22;11484;50.858;4.384;2022-12-07T11:45:39;8.40;99.90
22635;DHT22;11484;50.858;4.384;2022-12-07T11:48:17;8.30;99.90
22635;DHT22;11484;50.858;4.384;2022-12-07T11:50:54;8.40;99.90
22635;DHT22;11484;50.858;4.384;2022-12-07T11:56:11;8.40;99.90
22635;DHT22;11484;50.858;4.384;2022-12-07T12:06:12;8.50;99.90
22635;DHT22;11484;50.858;4.384;2022-12-07T12:08:55;8.60;99.90
22635;DHT22;11484;50.858;4.384;2022-12-07T12:20:29;8.90;99.90
22635;DHT22;11484;50.858;4.384;2022-12-07T12:26:02;8.80;99.90
22635;DHT22;11484;50.858;4.384;2022-12-07T12:33:35;8.70;99.90
22635;DHT22;11484;50.858;4.384;2022-12-07T12:39:08;8.50;99.90
22635;DHT22;11484;50.858;4.384;2022-12-07T12:47:04;8.40;99.90
22635;DHT22;11484;50.858;4.384;2022-12-07T12:55:11;8.30;99.90
22635;DHT22;11484;50.858;4.384;2022-12-07T12:57:38;8.30;99.90
22635;DHT22;11484;50.858;4.384;2022-12-07T13:00:21;8.40;99.90
22635;DHT22;11484;50.858;4.384;2022-12-07T13:03:16;8.50;99.90
22635;DHT22;11484;50.858;4.384;2022-12-07T13:05:47;8.60;99.90
22635;DHT22;11484;50.858;4.384;2022-12-07T13:08:25;8.70;99.90
22635;DHT22;11484;50.858;4.384;2022-12-07T13:10:51;8.90;99.90
22635;DHT22;11484;50.858;4.384;2022-12-07T13:18:41;9.00;99.90
22635;DHT22;11484;50.858;4.384;2022-12-07T13:23:37;9.10;99.90
22635;DHT22;11484;50.858;4.384;2022-12-07T13:26:17;9.20;99.90
22635;DHT22;11484;50.858;4.384;2022-12-07T13:29:12;9.20;99.90
22635;DHT22;11484;50.858;4.384;2022-12-07T13:31:52;9.30;99.90
22635;DHT22;11484;50.858;4.384;2022-12-07T13:34:41;9.20;99.90
22635;DHT22;11484;50.858;4.384;2022-12-07T13:37:26;9.10;99.90
22635;DHT22;11484;50.858;4.384;2022-12-07T13:39:57;9.20;99.90
22635;DHT22;11484;50.858;4.384;2022-12-07T13:42:32;9.20;99.90
22635;DHT22;11484;50.858;4.384;2022-12-07T13:45:00;9.30;99.90
22635;DHT22;11484;50.858;4.384;2022-12-07T13:49:54;9.40;99.90
22635;DHT22;11484;50.858;4.384;2022-12-07T13:52:29;9.40;99.90
22635;DHT22;11484;50.858;4.384;2022-12-07T13:57:32;9.30;99.90
22635;DHT22;11484;50.858;4.384;2022-12-07T14:00:05;9.40;99.90
22635;DHT22;11484;50.858;4.384;2022-12-07T14:02:33;9.30;99.90
22635;DHT22;11484;50.858;4.384;2022-12-07T14:05:24;9.30;99.90
22635;DHT22;11484;50.858;4.384;2022-12-07T14:08:01;9.20;99.90
22635;DHT22;11484;50.858;4.384;2022-12-07T14:10:36;9.10;99.90
22635;DHT22;11484;50.858;4.384;2022-12-07T14:13:03;9.10;99.90
22635;DHT22;11484;50.858;4.384;2022-12-07T14:15:50;9.10;99.90
22635;DHT22;11484;50.858;4.384;2022-12-07T14:18:28;9.00;99.90
22635;DHT22;11484;50.858;4.384;2022-12-07T14:21:28;9.00;99.90
22635;DHT22;11484;50.858;4.384;2022-12-07T14:24:19;8.90;99.90
22635;DHT22;11484;50.858;4.384;2022-12-07T14:26:50;8.80;99.90
22635;DHT22;11484;50.858;4.384;2022-12-07T14:29:31;8.70;99.90
22635;DHT22;11484;50.858;4.384;2022-12-07T14:32:22;8.70;99.90
22635;DHT22;11484;50.858;4.384;2022-12-07T14:35:10;8.80;99.90
22635;DHT22;11484;50.858;4.384;2022-12-07T14:37:37;8.70;99.90
22635;DHT22;11484;50.858;4.384;2022-12-07T14:40:04;8.70;99.90
22635;DHT22;11484;50.858;4.384;2022-12-07T14:42:31;8.80;99.90
22635;DHT22;11484;50.858;4.384;2022-12-07T14:44:58;8.80;99.90
22635;DHT22;11484;50.858;4.384;2022-12-07T14:47:25;8.70;99.90
22635;DHT22;11484;50.858;4.384;2022-12-07T14:49:52;8.70;99.90
22635;DHT22;11484;50.858;4.384;2022-12-07T14:52:23;8.60;99.90
22635;DHT22;11484;50.858;4.384;2022-12-07T14:54:50;8.60;99.90
22635;DHT22;11484;50.858;4.384;2022-12-07T14:57:16;8.60;99.90
22635;DHT22;11484;50.858;4.384;2022-12-07T14:59:42;8.60;99.90
22635;DHT22;11484;50.858;4.384;2022-12-07T15:02:12;8.60;99.90
22635;DHT22;11484;50.858;4.384;2022-12-07T15:04:39;8.50;99.90
22635;DHT22;11484;50.858;4.384;2022-12-07T15:07:08;8.60;99.90
22635;DHT22;11484;50.858;4.384;2022-12-07T15:09:35;8.60;99.90
22635;DHT22;11484;50.858;4.384;2022-12-07T15:12:01;8.60;99.90
22635;DHT22;11484;50.858;4.384;2022-12-07T15:14:26;8.60;99.90
22635;DHT22;11484;50.858;4.384;2022-12-07T15:16:52;8.60;99.90
22635;DHT22;11484;50.858;4.384;2022-12-07T15:19:20;8.60;99.90
22635;DHT22;11484;50.858;4.384;2022-12-07T15:21:51;8.80;99.90
22635;DHT22;11484;50.858;4.384;2022-12-07T15:24:18;8.80;99.90
22635;DHT22;11484;50.858;4.384;2022-12-07T15:26:44;8.70;99.90
22635;DHT22;11484;50.858;4.384;2022-12-07T15:29:11;8.80;99.90
22635;DHT22;11484;50.858;4.384;2022-12-07T15:31:37;8.70;99.90
22635;DHT22;11484;50.858;4.384;2022-12-07T15:34:04;8.80;99.90
22635;DHT22;11484;50.858;4.384;2022-12-07T15:36:31;8.70;99.90
22635;DHT22;11484;50.858;4.384;2022-12-07T15:38:57;8.70;99.90
22635;DHT22;11484;50.858;4.384;2022-12-07T15:41:24;8.70;99.90
22635;DHT22;11484;50.858;4.384;2022-12-07T15:43:50;8.60;99.90
22635;DHT22;11484;50.858;4.384;2022-12-07T15:46:40;8.60;99.90
22635;DHT22;11484;50.858;4.384;2022-12-07T15:49:13;8.50;99.90
22635;DHT22;11484;50.858;4.384;2022-12-07T15:51:40;8.40;99.90
22635;DHT22;11484;50.858;4.384;2022-12-07T15:54:06;8.40;99.90
22635;DHT22;11484;50.858;4.384;2022-12-07T15:56:32;8.30;99.90
22635;DHT22;11484;50.858;4.384;2022-12-07T15:58:57;8.20;99.90
22635;DHT22;11484;50.858;4.384;2022-12-07T16:01:23;8.20;99.90
22635;DHT22;11484;50.858;4.384;2022-12-07T16:03:49;8.30;99.90
22635;DHT22;11484;50.858;4.384;2022-12-07T16:06:16;8.30;99.90
22635;DHT22;11484;50.858;4.384;2022-12-07T16:08:45;8.40;99.90
22635;DHT22;11484;50.858;4.384;2022-12-07T16:11:12;8.30;99.90
22635;DHT22;11484;50.858;4.384;2022-12-07T16:13:40;8.30;99.90
22635;DHT22;11484;50.858;4.384;2022-12-07T16:16:13;8.40;99.90
22635;DHT22;11484;50.858;4.384;2022-12-07T16:18:39;8.40;99.90
22635;DHT22;11484;50.858;4.384;2022-12-07T16:21:05;8.40;99.90
22635;DHT22;11484;50.858;4.384;2022-12-07T16:23:31;8.50;99.90
22635;DHT22;11484;50.858;4.384;2022-12-07T16:26:09;8.50;99.90
22635;DHT22;11484;50.858;4.384;2022-12-07T16:28:36;8.60;99.90
22635;DHT22;11484;50.858;4.384;2022-12-07T16:31:04;8.60;99.90
22635;DHT22;11484;50.858;4.384;2022-12-07T16:33:30;8.60;99.90
22635;DHT22;11484;50.858;4.384;2022-12-07T16:35:55;8.60;99.90
22635;DHT22;11484;50.858;4.384;2022-12-07T16:38:21;8.60;99.90
22635;DHT22;11484;50.858;4.384;2022-12-07T16:40:47;8.50;99.90
22635;DHT22;11484;50.858;4.384;2022-12-07T16:43:13;8.50;99.90
22635;DHT22;11484;50.858;4.384;2022-12-07T16:45:39;8.50;99.90
22635;DHT22;11484;50.858;4.384;2022-12-07T16:48:05;8.50;99.90
22635;DHT22;11484;50.858;4.384;2022-12-07T16:50:31;8.40;99.90
22635;DHT22;11484;50.858;4.384;2022-12-07T16:52:57;8.50;99.90
22635;DHT22;11484;50.858;4.384;2022-12-07T16:55:22;8.50;99.90
22635;DHT22;11484;50.858;4.384;2022-12-07T16:57:48;8.50;99.90
22635;DHT22;11484;50.858;4.384;2022-12-07T17:00:16;8.40;99.90
22635;DHT22;11484;50.858;4.384;2022-12-07T17:02:42;8.30;99.90
22635;DHT22;11484;50.858;4.384;2022-12-07T17:05:07;8.30;99.90
22635;DHT22;11484;50.858;4.384;2022-12-07T17:07:33;8.30;99.90
22635;DHT22;11484;50.858;4.384;2022-12-07T17:09:59;8.20;99.90
22635;DHT22;11484;50.858;4.384;2022-12-07T17:12:25;8.20;99.90
22635;DHT22;11484;50.858;4.384;2022-12-07T17:14:51;8.20;99.90
22635;DHT22;11484;50.858;4.384;2022-12-07T17:17:37;8.20;99.90
22635;DHT22;11484;50.858;4.384;2022-12-07T17:20:03;8.20;99.90
22635;DHT22;11484;50.858;4.384;2022-12-07T17:22:29;8.10;99.90
22635;DHT22;11484;50.858;4.384;2022-12-07T17:24:55;8.20;99.90
22635;DHT22;11484;50.858;4.384;2022-12-07T17:27:21;8.10;99.90
22635;DHT22;11484;50.858;4.384;2022-12-07T17:29:47;8.20;99.90
22635;DHT22;11484;50.858;4.384;2022-12-07T17:32:12;8.20;99.90
22635;DHT22;11484;50.858;4.384;2022-12-07T17:34:38;8.20;99.90
22635;DHT22;11484;50.858;4.384;2022-12-07T17:37:04;8.10;99.90
22635;DHT22;11484;50.858;4.384;2022-12-07T17:39:30;8.10;99.90
22635;DHT22;11484;50.858;4.384;2022-12-07T17:41:56;8.10;99.90
22635;DHT22;11484;50.858;4.384;2022-12-07T17:44:40;8.10;99.90
22635;DHT22;11484;50.858;4.384;2022-12-07T17:47:07;8.10;99.90
22635;DHT22;11484;50.858;4.384;2022-12-07T17:49:35;8.20;99.90
22635;DHT22;11484;50.858;4.384;2022-12-07T17:52:01;8.20;99.90
22635;DHT22;11484;50.858;4.384;2022-12-07T17:54:45;8.20;99.90
22635;DHT22;11484;50.858;4.384;2022-12-07T17:57:11;8.20;99.90
22635;DHT22;11484;50.858;4.384;2022-12-07T17:59:38;8.20;99.90
22635;DHT22;11484;50.858;4.384;2022-12-07T18:02:04;8.10;99.90
22635;DHT22;11484;50.858;4.384;2022-12-07T18:04:30;8.20;99.90
22635;DHT22;11484;50.858;4.384;2022-12-07T18:06:56;8.20;99.90
22635;DHT22;11484;50.858;4.384;2022-12-07T18:09:21;8.20;99.90